createdAt,value
2022-11-29T00:01:35.145Z,23.00
2022-11-29T00:04:05.184Z,22.50
2022-11-29T00:06:35.324Z,22.60
2022-11-29T00:09:06.331Z,23.63
2022-11-29T00:11:53.705Z,22.97
2022-11-29T00:14:22.757Z,23.93
2022-11-29T00:16:55.322Z,23.90
2022-11-29T00:19:24.791Z,23.77
2022-11-29T00:21:52.690Z,25.00
2022-11-29T00:24:24.794Z,25.53
2022-11-29T00:26:52.673Z,24.73
2022-11-29T00:29:20.679Z,25.07
2022-11-29T00:31:48.540Z,25.97
2022-11-29T00:34:16.565Z,25.00
2022-11-29T00:36:45.790Z,25.37
2022-11-29T00:39:14.224Z,24.77
2022-11-29T00:41:42.006Z,24.83
2022-11-29T00:44:13.992Z,26.97
2022-11-29T00:46:44.913Z,25.17
2022-11-29T00:49:12.747Z,25.77
2022-11-29T00:51:40.620Z,26.27
2022-11-29T00:54:10.018Z,27.60
2022-11-29T00:56:37.883Z,25.90
2022-11-29T00:59:05.744Z,26.47
2022-11-29T01:01:33.622Z,26.93
2022-11-29T01:04:01.797Z,26.33
2022-11-29T01:06:29.709Z,26.70
2022-11-29T01:08:57.656Z,27.53
2022-11-29T01:11:28.659Z,27.97
2022-11-29T01:13:59.250Z,26.93
2022-11-29T01:16:28.828Z,28.23
2022-11-29T01:18:57.215Z,27.97
2022-11-29T01:21:26.100Z,26.83
2022-11-29T01:23:54.923Z,27.37
2022-11-29T01:26:24.697Z,27.83
2022-11-29T01:28:55.814Z,28.13
2022-11-29T01:31:25.752Z,27.57
2022-11-29T01:33:55.327Z,29.17
2022-11-29T01:36:23.398Z,27.40
2022-11-29T01:38:51.784Z,28.17
2022-11-29T01:41:22.010Z,28.97
2022-11-29T01:44:00.383Z,30.03
2022-11-29T01:46:29.548Z,29.43
2022-11-29T01:49:02.844Z,29.90
2022-11-29T01:51:32.158Z,27.37
2022-11-29T01:54:00.520Z,29.97
2022-11-29T01:56:31.104Z,28.73
2022-11-29T01:59:02.435Z,29.63
2022-11-29T02:01:30.355Z,30.23
2022-11-29T02:03:58.290Z,29.23
2022-11-29T02:06:26.680Z,27.70
2022-11-29T02:08:55.778Z,28.80
2022-11-29T02:11:47.697Z,29.27
2022-11-29T02:14:39.767Z,30.60
2022-11-29T02:17:19.283Z,29.60
2022-11-29T02:20:22.964Z,29.23
2022-11-29T02:22:58.446Z,30.80
2022-11-29T02:25:43.526Z,29.47
2022-11-29T02:28:44.435Z,30.83
2022-11-29T02:31:42.214Z,29.07
2022-11-29T02:34:30.224Z,29.53
2022-11-29T02:37:28.543Z,29.67
2022-11-29T02:40:11.936Z,29.83
2022-11-29T02:43:03.896Z,29.43
2022-11-29T02:45:45.174Z,29.27
2022-11-29T02:48:30.935Z,31.60
2022-11-29T02:51:09.427Z,31.07
2022-11-29T02:53:40.638Z,33.53
2022-11-29T02:56:14.842Z,32.33
2022-11-29T02:58:50.264Z,31.53
2022-11-29T03:01:25.305Z,31.97
2022-11-29T03:04:01.209Z,31.37
2022-11-29T03:06:40.524Z,32.43
2022-11-29T03:09:17.144Z,32.20
2022-11-29T03:11:50.737Z,31.90
2022-11-29T03:14:25.219Z,32.03
2022-11-29T03:17:05.174Z,31.33
2022-11-29T03:19:48.012Z,32.00
2022-11-29T03:22:26.104Z,32.07
2022-11-29T03:25:01.204Z,32.10
2022-11-29T03:27:37.636Z,30.53
2022-11-29T03:30:08.796Z,30.57
2022-11-29T03:32:44.735Z,31.97
2022-11-29T03:35:17.935Z,31.53
2022-11-29T03:37:56.084Z,32.40
2022-11-29T03:40:30.775Z,33.93
2022-11-29T03:43:05.571Z,31.57
2022-11-29T03:45:37.781Z,32.17
2022-11-29T03:48:10.668Z,32.63
2022-11-29T03:50:43.324Z,33.43
2022-11-29T03:53:19.198Z,33.07
2022-11-29T03:55:55.105Z,30.50
2022-11-29T03:58:36.278Z,30.07
2022-11-29T04:01:42.709Z,32.63
2022-11-29T04:04:28.738Z,33.30
2022-11-29T04:07:08.934Z,32.23
2022-11-29T04:09:56.687Z,33.63
2022-11-29T04:12:46.422Z,33.70
2022-11-29T04:15:48.579Z,31.17
2022-11-29T04:18:47.901Z,30.47
2022-11-29T04:21:46.226Z,32.80
2022-11-29T04:24:34.935Z,32.10
2022-11-29T04:27:29.271Z,31.87
2022-11-29T04:30:07.495Z,31.53
2022-11-29T04:33:13.846Z,32.93
2022-11-29T04:36:00.900Z,33.10
2022-11-29T04:39:04.411Z,32.63
2022-11-29T04:41:56.238Z,32.07
2022-11-29T04:44:43.039Z,32.33
2022-11-29T04:47:28.756Z,32.93
2022-11-29T04:50:13.807Z,33.17
2022-11-29T04:53:09.877Z,35.13
2022-11-29T04:55:45.780Z,34.27
2022-11-29T04:58:22.692Z,34.80
2022-11-29T05:01:06.117Z,32.57
2022-11-29T05:03:39.832Z,32.53
2022-11-29T05:06:26.830Z,32.80
2022-11-29T05:09:04.098Z,32.00
2022-11-29T05:11:42.434Z,33.47
2022-11-29T05:14:21.031Z,32.53
2022-11-29T05:16:57.965Z,33.10
2022-11-29T05:20:13.720Z,34.43
2022-11-29T05:22:50.223Z,34.63
2022-11-29T05:25:35.695Z,34.43
2022-11-29T05:28:10.994Z,34.63
2022-11-29T05:31:02.347Z,34.23
2022-11-29T05:33:54.077Z,36.00
2022-11-29T05:36:29.414Z,34.50
2022-11-29T05:39:14.789Z,35.33
2022-11-29T05:41:58.785Z,35.60
2022-11-29T05:44:38.060Z,35.37
2022-11-29T05:47:10.009Z,35.87
2022-11-29T05:49:46.146Z,33.37
2022-11-29T05:52:22.945Z,34.30
2022-11-29T05:55:04.033Z,35.30
2022-11-29T05:57:42.721Z,35.20
2022-11-29T06:00:13.284Z,34.77
2022-11-29T06:02:52.510Z,35.93
2022-11-29T06:05:29.999Z,35.10
2022-11-29T06:08:06.258Z,36.50
2022-11-29T06:10:40.103Z,36.00
2022-11-29T06:13:21.924Z,35.60
2022-11-29T06:16:11.153Z,35.07
2022-11-29T06:19:09.263Z,35.17
2022-11-29T06:21:46.077Z,35.73
2022-11-29T06:24:36.075Z,37.10
2022-11-29T06:27:22.433Z,35.47
2022-11-29T06:29:57.863Z,36.13
2022-11-29T06:32:32.502Z,33.93
2022-11-29T06:35:05.275Z,35.93
2022-11-29T06:37:40.316Z,37.80
2022-11-29T06:40:12.598Z,37.30
2022-11-29T06:42:40.549Z,39.73
2022-11-29T06:45:11.589Z,37.63
2022-11-29T06:47:45.255Z,36.83
2022-11-29T06:50:31.310Z,37.03
2022-11-29T06:53:09.196Z,36.83
2022-11-29T06:55:48.689Z,36.97
2022-11-29T06:58:36.390Z,35.30
2022-11-29T07:01:11.873Z,36.57
2022-11-29T07:04:00.243Z,37.87
2022-11-29T07:06:30.603Z,35.13
2022-11-29T07:09:02.404Z,37.30
2022-11-29T07:11:31.192Z,37.33
2022-11-29T07:13:59.552Z,37.73
2022-11-29T07:16:32.143Z,36.50
2022-11-29T07:19:10.654Z,36.37
2022-11-29T07:21:54.062Z,37.27
2022-11-29T07:24:39.301Z,36.37
2022-11-29T07:27:17.411Z,35.63
2022-11-29T07:30:05.091Z,36.17
2022-11-29T07:32:51.373Z,35.73
2022-11-29T07:35:27.542Z,36.30
2022-11-29T07:38:08.210Z,35.83
2022-11-29T07:40:45.679Z,36.97
2022-11-29T07:43:26.237Z,35.17
2022-11-29T07:45:55.274Z,36.83
2022-11-29T07:48:28.215Z,34.57
2022-11-29T07:50:57.869Z,36.63
2022-11-29T07:53:25.859Z,36.03
2022-11-29T07:55:55.259Z,36.73
2022-11-29T07:58:23.475Z,36.73
2022-11-29T08:00:51.418Z,38.13
2022-11-29T08:03:21.984Z,37.30
2022-11-29T08:05:53.414Z,36.07
2022-11-29T08:08:21.257Z,37.30
2022-11-29T08:10:49.344Z,38.13
2022-11-29T08:13:20.456Z,37.37
2022-11-29T08:15:49.471Z,36.63
2022-11-29T08:18:17.623Z,36.17
2022-11-29T08:20:46.406Z,35.83
2022-11-29T08:23:15.291Z,38.33
2022-11-29T08:25:43.193Z,36.37
2022-11-29T08:28:11.335Z,36.63
2022-11-29T08:30:40.726Z,35.87
2022-11-29T08:33:08.922Z,36.50
2022-11-29T08:35:36.920Z,36.50
2022-11-29T08:38:05.269Z,35.70
2022-11-29T08:40:33.168Z,35.90
2022-11-29T08:43:00.986Z,36.70
2022-11-29T08:45:29.237Z,44.33
2022-11-29T08:47:58.573Z,36.50
2022-11-29T08:50:27.170Z,36.27
2022-11-29T08:53:12.432Z,36.83
2022-11-29T08:55:43.069Z,44.50
2022-11-29T08:58:13.624Z,39.53
2022-11-29T09:00:43.829Z,36.83
2022-11-29T09:03:30.755Z,40.80
2022-11-29T09:05:59.812Z,42.87
2022-11-29T09:08:28.965Z,44.37
2022-11-29T09:10:57.107Z,46.80
2022-11-29T09:13:24.986Z,45.03
2022-11-29T09:15:52.987Z,40.70
2022-11-29T09:18:25.124Z,39.47
2022-11-29T09:20:52.958Z,53.07
2022-11-29T09:23:21.453Z,55.00
2022-11-29T09:25:50.537Z,38.10
2022-11-29T09:28:18.594Z,37.23
2022-11-29T09:30:46.816Z,36.77
2022-11-29T09:33:20.254Z,36.83
2022-11-29T09:35:50.496Z,49.37
2022-11-29T09:38:18.748Z,38.70
2022-11-29T09:40:53.450Z,37.67
2022-11-29T09:43:30.663Z,40.30
2022-11-29T09:46:04.043Z,37.30
2022-11-29T09:49:00.211Z,37.23
2022-11-29T09:51:41.167Z,37.13
2022-11-29T09:54:29.449Z,41.87
2022-11-29T09:56:58.396Z,41.20
2022-11-29T09:59:30.096Z,40.10
2022-11-29T10:02:04.485Z,41.50
2022-11-29T10:04:37.458Z,38.83
2022-11-29T10:07:15.370Z,37.57
2022-11-29T10:09:47.777Z,37.90
2022-11-29T10:12:21.034Z,35.87
2022-11-29T10:14:55.615Z,35.10
2022-11-29T10:17:35.085Z,36.63
2022-11-29T10:20:07.353Z,37.47
2022-11-29T10:22:43.771Z,37.27
2022-11-29T10:25:21.268Z,37.10
2022-11-29T10:27:49.202Z,35.60
2022-11-29T10:30:17.664Z,37.07
2022-11-29T10:32:48.024Z,36.40
2022-11-29T10:35:18.353Z,37.53
2022-11-29T10:38:14.594Z,35.97
2022-11-29T10:40:40.843Z,35.33
2022-11-29T10:43:09.227Z,34.90
2022-11-29T10:45:44.387Z,36.17
2022-11-29T10:48:15.672Z,36.57
2022-11-29T10:50:45.569Z,36.90
2022-11-29T10:53:17.260Z,36.27
2022-11-29T10:55:50.275Z,33.87
2022-11-29T10:58:26.260Z,37.50
2022-11-29T11:00:57.758Z,36.23
2022-11-29T11:03:30.442Z,36.87
2022-11-29T11:06:01.342Z,34.33
2022-11-29T11:08:33.041Z,34.90
2022-11-29T11:11:02.394Z,36.10
2022-11-29T11:13:32.208Z,37.27
2022-11-29T11:16:10.303Z,35.60
2022-11-29T11:18:39.155Z,35.80
2022-11-29T11:21:10.616Z,35.60
2022-11-29T11:23:46.456Z,35.93
2022-11-29T11:26:15.965Z,35.10
2022-11-29T11:28:50.182Z,35.97
2022-11-29T11:31:28.907Z,34.00
2022-11-29T11:33:56.877Z,34.60
2022-11-29T11:36:27.293Z,36.33
2022-11-29T11:38:59.170Z,36.00
2022-11-29T11:41:44.729Z,34.93
2022-11-29T11:44:47.330Z,37.97
2022-11-29T11:47:21.512Z,37.57
2022-11-29T11:49:55.832Z,37.57
2022-11-29T11:52:26.175Z,36.30
2022-11-29T11:54:59.991Z,36.00
2022-11-29T11:57:29.722Z,37.07
2022-11-29T12:00:04.971Z,37.30
2022-11-29T12:02:39.338Z,39.60
2022-11-29T12:05:14.299Z,37.60
2022-11-29T12:10:41.377Z,39.17
2022-11-29T12:13:19.787Z,38.80
2022-11-29T12:15:50.853Z,39.33
2022-11-29T12:18:27.195Z,39.37
2022-11-29T12:20:59.363Z,41.30
2022-11-29T12:23:36.606Z,38.33
2022-11-29T12:26:13.636Z,38.70
2022-11-29T12:28:48.332Z,40.37
2022-11-29T12:31:34.302Z,41.00
2022-11-29T12:34:13.370Z,38.40
2022-11-29T12:36:51.439Z,39.73
2022-11-29T12:39:36.438Z,40.00
2022-11-29T12:42:14.912Z,39.43
2022-11-29T12:44:53.250Z,39.00
2022-11-29T12:47:39.075Z,41.40
2022-11-29T12:50:25.738Z,39.57
2022-11-29T12:53:03.298Z,38.93
2022-11-29T12:55:40.792Z,40.00
2022-11-29T12:58:16.552Z,39.30
2022-11-29T13:00:53.480Z,41.10
2022-11-29T13:03:27.289Z,39.93
2022-11-29T13:06:08.991Z,41.17
2022-11-29T13:08:58.124Z,39.90
2022-11-29T13:11:30.509Z,41.67
2022-11-29T13:14:40.811Z,41.13
2022-11-29T13:17:00.077Z,40.33
2022-11-29T13:19:35.505Z,40.20
2022-11-29T13:22:12.134Z,40.83
2022-11-29T13:24:44.284Z,40.50
2022-11-29T13:27:18.069Z,42.07
2022-11-29T13:29:48.057Z,40.17
2022-11-29T13:32:35.210Z,40.37
2022-11-29T13:35:08.468Z,40.30
2022-11-29T13:37:50.616Z,43.13
2022-11-29T13:40:34.060Z,40.17
2022-11-29T13:43:13.260Z,41.13
2022-11-29T13:45:49.428Z,41.73
2022-11-29T13:48:34.721Z,40.50
2022-11-29T13:51:28.011Z,39.77
2022-11-29T13:53:57.853Z,41.37
2022-11-29T13:56:29.739Z,43.37
2022-11-29T13:58:59.402Z,40.80
2022-11-29T14:01:29.516Z,41.20
2022-11-29T14:04:07.174Z,42.00
2022-11-29T14:06:36.776Z,44.20
2022-11-29T14:09:27.275Z,42.97
2022-11-29T14:12:02.979Z,41.60
2022-11-29T14:14:36.489Z,41.80
2022-11-29T14:17:07.277Z,44.37
2022-11-29T14:19:37.041Z,41.40
2022-11-29T14:22:22.518Z,44.13
2022-11-29T14:25:11.779Z,42.47
2022-11-29T14:27:57.347Z,40.90
2022-11-29T14:30:49.848Z,42.30
2022-11-29T14:33:53.263Z,43.93
2022-11-29T14:36:41.908Z,45.43
2022-11-29T14:39:28.916Z,44.37
2022-11-29T14:42:14.535Z,43.63
2022-11-29T14:44:48.023Z,42.77
2022-11-29T14:47:24.281Z,43.50
2022-11-29T14:49:56.747Z,44.27
2022-11-29T14:52:34.920Z,44.67
2022-11-29T14:55:10.263Z,46.00
2022-11-29T14:58:09.946Z,42.67
2022-11-29T15:00:56.269Z,43.13
2022-11-29T15:03:33.010Z,42.87
2022-11-29T15:06:10.976Z,41.63
2022-11-29T15:08:48.147Z,41.83
2022-11-29T15:11:25.295Z,42.03
2022-11-29T15:14:02.825Z,43.17
2022-11-29T15:16:45.295Z,44.93
2022-11-29T15:20:10.372Z,43.30
2022-11-29T15:22:47.530Z,43.60
2022-11-29T15:25:20.295Z,42.43
2022-11-29T15:27:54.946Z,44.17
2022-11-29T15:30:30.164Z,43.57
2022-11-29T15:32:58.701Z,43.37
2022-11-29T15:35:26.981Z,44.27
2022-11-29T15:37:56.818Z,42.53
2022-11-29T15:40:31.445Z,44.07
2022-11-29T15:43:05.135Z,43.00
2022-11-29T15:45:35.120Z,40.37
2022-11-29T15:48:15.374Z,43.03
2022-11-29T15:50:49.156Z,43.67
2022-11-29T15:53:24.496Z,43.23
2022-11-29T15:55:55.574Z,41.60
2022-11-29T15:58:24.709Z,44.00
2022-11-29T16:00:54.196Z,44.40
2022-11-29T16:03:26.555Z,43.07
2022-11-29T16:06:03.245Z,43.20
2022-11-29T16:08:35.942Z,42.13
2022-11-29T16:11:03.855Z,43.73
2022-11-29T16:13:38.597Z,43.93
2022-11-29T16:16:11.869Z,41.93
2022-11-29T16:18:42.354Z,42.87
2022-11-29T16:21:24.311Z,43.13
2022-11-29T16:23:54.733Z,40.97
2022-11-29T16:26:27.541Z,42.30
2022-11-29T16:28:57.991Z,42.90
2022-11-29T16:31:32.944Z,41.63
2022-11-29T16:34:08.143Z,42.70
2022-11-29T16:36:36.997Z,42.60
2022-11-29T16:39:17.148Z,42.07
2022-11-29T16:41:45.073Z,41.03
2022-11-29T16:45:03.260Z,43.33
2022-11-29T16:47:33.343Z,44.27
2022-11-29T16:50:19.452Z,43.63
2022-11-29T16:52:49.830Z,43.53
2022-11-29T16:55:23.078Z,43.30
2022-11-29T16:57:52.091Z,43.10
2022-11-29T17:00:29.893Z,42.27
2022-11-29T17:02:57.864Z,45.60
2022-11-29T17:05:25.985Z,43.83
2022-11-29T17:07:54.317Z,43.30
2022-11-29T17:10:26.409Z,45.00
2022-11-29T17:12:57.057Z,42.80
2022-11-29T17:15:25.373Z,45.10
2022-11-29T17:17:53.581Z,43.37
2022-11-29T17:20:21.557Z,48.83
2022-11-29T17:22:49.392Z,43.27
2022-11-29T17:25:17.515Z,43.77
2022-11-29T17:27:46.909Z,44.70
2022-11-29T17:30:15.656Z,43.80
2022-11-29T17:32:43.778Z,45.10
2022-11-29T17:35:11.774Z,47.30
2022-11-29T17:37:39.691Z,45.03
2022-11-29T17:40:09.024Z,44.17
2022-11-29T17:42:37.388Z,43.10
2022-11-29T17:45:07.393Z,43.70
2022-11-29T17:47:35.424Z,43.20
2022-11-29T17:50:03.685Z,44.03
2022-11-29T17:52:31.611Z,46.20
2022-11-29T17:54:59.461Z,47.50
2022-11-29T17:57:27.444Z,46.67
2022-11-29T17:59:55.408Z,46.73
2022-11-29T18:02:24.765Z,45.67
2022-11-29T18:04:53.293Z,46.30
2022-11-29T18:07:21.260Z,47.57
2022-11-29T18:09:49.331Z,47.00
2022-11-29T18:12:17.460Z,46.20
2022-11-29T18:14:45.701Z,48.67
2022-11-29T18:17:13.703Z,44.33
2022-11-29T18:19:43.497Z,47.80
2022-11-29T18:22:11.753Z,45.03
2022-11-29T18:24:43.652Z,45.77
2022-11-29T18:27:11.591Z,44.70
2022-11-29T18:29:39.564Z,44.97
2022-11-29T18:32:07.481Z,44.60
2022-11-29T18:34:35.371Z,47.00
2022-11-29T18:37:04.648Z,45.83
2022-11-29T18:39:32.722Z,45.73
2022-11-29T18:42:00.692Z,43.27
2022-11-29T18:44:33.255Z,46.23
2022-11-29T18:47:01.169Z,44.10
2022-11-29T18:49:29.071Z,45.80
2022-11-29T18:51:57.181Z,45.70
2022-11-29T18:54:26.419Z,45.70
2022-11-29T18:56:54.337Z,47.30
2022-11-29T18:59:23.142Z,45.97
2022-11-29T19:01:51.277Z,47.80
2022-11-29T19:04:21.143Z,46.60
2022-11-29T19:06:49.868Z,46.93
2022-11-29T19:09:20.878Z,49.87
2022-11-29T19:11:50.850Z,48.03
2022-11-29T19:14:19.310Z,44.73
2022-11-29T19:16:49.946Z,46.17
2022-11-29T19:19:18.985Z,45.27
2022-11-29T19:21:47.179Z,48.03
2022-11-29T19:24:17.718Z,49.77
2022-11-29T19:26:47.596Z,46.00
2022-11-29T19:29:17.586Z,49.30
2022-11-29T19:31:45.625Z,48.03
2022-11-29T19:34:13.574Z,50.00
2022-11-29T19:36:44.422Z,49.87
2022-11-29T19:39:14.666Z,48.33
2022-11-29T19:41:44.436Z,48.47
2022-11-29T19:44:12.853Z,48.60
2022-11-29T19:46:44.584Z,47.23
2022-11-29T19:49:13.159Z,48.53
2022-11-29T19:51:41.315Z,47.77
2022-11-29T19:54:10.817Z,47.97
2022-11-29T19:56:39.350Z,48.97
2022-11-29T19:59:07.856Z,52.03
2022-11-29T20:01:40.784Z,49.10
2022-11-29T20:04:13.099Z,49.93
2022-11-29T20:06:41.704Z,50.57
2022-11-29T20:09:09.820Z,50.70
2022-11-29T20:11:37.834Z,49.60
2022-11-29T20:14:07.144Z,52.00
2022-11-29T20:16:35.113Z,49.97
2022-11-29T20:19:02.943Z,47.93
2022-11-29T20:21:33.929Z,51.77
2022-11-29T20:24:03.300Z,49.03
2022-11-29T20:26:33.314Z,50.57
2022-11-29T20:29:02.049Z,51.80
2022-11-29T20:31:30.463Z,51.87
2022-11-29T20:33:58.820Z,48.50
2022-11-29T20:36:41.139Z,50.57
2022-11-29T20:39:21.851Z,50.33
2022-11-29T20:42:02.343Z,52.33
2022-11-29T20:44:38.782Z,48.13
2022-11-29T20:47:15.142Z,49.30
2022-11-29T20:49:43.425Z,50.07
2022-11-29T20:52:26.596Z,50.27
2022-11-29T20:54:54.422Z,49.97
2022-11-29T20:57:22.447Z,50.37
2022-11-29T20:59:50.362Z,48.50
2022-11-29T21:02:18.407Z,49.30
2022-11-29T21:04:46.445Z,50.23
2022-11-29T21:07:16.217Z,48.57
2022-11-29T21:09:44.453Z,49.83
2022-11-29T21:12:13.489Z,51.27
2022-11-29T21:14:41.934Z,50.17
2022-11-29T21:17:10.668Z,48.90
2022-11-29T21:19:39.365Z,49.20
2022-11-29T21:22:15.571Z,50.77
2022-11-29T21:24:54.737Z,47.53
2022-11-29T21:27:28.821Z,49.00
2022-11-29T21:29:57.581Z,50.07
2022-11-29T21:32:28.143Z,48.60
2022-11-29T21:34:56.032Z,50.47
2022-11-29T21:37:28.620Z,49.57
2022-11-29T21:39:58.380Z,48.33
2022-11-29T21:42:26.363Z,49.57
2022-11-29T21:44:54.215Z,45.00
2022-11-29T21:47:22.086Z,47.67
2022-11-29T21:49:52.376Z,46.83
2022-11-29T21:52:22.838Z,48.67
2022-11-29T21:54:51.515Z,47.10
2022-11-29T21:57:20.803Z,47.93
2022-11-29T21:59:48.673Z,47.23
2022-11-29T22:02:16.800Z,48.67
2022-11-29T22:04:45.314Z,46.90
2022-11-29T22:07:13.431Z,49.37
2022-11-29T22:09:41.438Z,48.03
2022-11-29T22:12:31.997Z,51.87
2022-11-29T22:14:58.526Z,47.47
2022-11-29T22:17:26.331Z,50.67
2022-11-29T22:19:54.226Z,51.10
2022-11-29T22:22:22.086Z,47.33
2022-11-29T22:24:50.249Z,47.03
2022-11-29T22:27:18.746Z,51.27
2022-11-29T22:29:46.650Z,48.20
2022-11-29T22:32:15.959Z,47.90
2022-11-29T22:34:44.062Z,48.00
2022-11-29T22:37:12.508Z,46.10
2022-11-29T22:39:40.399Z,49.93
2022-11-29T22:42:08.318Z,48.87
2022-11-29T22:44:36.569Z,47.10
2022-11-29T22:47:04.508Z,47.93
2022-11-29T22:49:34.228Z,47.23
2022-11-29T22:52:02.085Z,48.23
2022-11-29T22:54:29.916Z,47.30
2022-11-29T22:56:57.898Z,46.77
2022-11-29T22:59:25.743Z,47.73
2022-11-29T23:01:55.351Z,49.33
2022-11-29T23:04:23.151Z,48.43
2022-11-29T23:06:52.450Z,46.50
2022-11-29T23:09:22.732Z,49.37
2022-11-29T23:11:53.185Z,48.47
2022-11-29T23:14:22.099Z,47.97
2022-11-29T23:16:50.168Z,48.60
2022-11-29T23:19:18.490Z,46.13
2022-11-29T23:21:46.503Z,48.50
2022-11-29T23:24:16.263Z,46.90
2022-11-29T23:26:46.926Z,46.97
2022-11-29T23:29:17.129Z,47.53
2022-11-29T23:31:45.217Z,46.80
2022-11-29T23:34:13.474Z,45.37
2022-11-29T23:36:41.592Z,46.13
2022-11-29T23:39:09.495Z,45.90
2022-11-29T23:41:38.924Z,46.23
2022-11-29T23:44:08.715Z,45.60
2022-11-29T23:46:37.034Z,44.30
2022-11-29T23:49:05.310Z,48.03
2022-11-29T23:51:33.224Z,47.63
2022-11-29T23:54:01.503Z,43.97
2022-11-29T23:56:35.139Z,45.93
2022-11-29T23:59:04.906Z,44.70
